Terminal Aerodrome Forecast
Issued by NWS

Home | Current Version | Previous Version | Graphics & Text | Print | Product List | Glossary On
Versions: 1 2 3 4 5 6 7 8 9 10 11 12 13 14 15
000
FTUS43 KBIS 180500
TAFDIK
TAF
KDIK 180521Z 1806/1906 28009KT P6SM SCT025 SCT120
     FM181300 24011KT P6SM SCT130
     FM181700 28015G23KT P6SM SCT025 BKN120
     FM181900 29020G30KT 6SM -SHSN BLSN BKN015 OVC025=

USA.gov is the U.S. government's official web portal to all federal, state and local government web resources and services.